Time;durP1;ratioP1;P1;durP2;ratioP2;P2;SDS_P1;SDS_P2;PMS_P1;PMS_P2;Temp;Humidity;BMP_temperature;BMP_pressure;BME280_temperature;BME280_humidity;BME280_pressure;Samples;Min_cycle;Max_cycle;Signal;HPM_P1;HPM_P2
2022/11/26 00:01:13;;;;;;;;;22.25;20.00;;;;;7.43;75.76;102565.84;5080568;27;45399;-85
2022/11/26 00:03:38;;;;;;;;;19.75;13.25;;;;;7.41;75.78;102564.97;5080315;27;47418;-86
2022/11/26 00:06:04;;;;;;;;;38.00;28.50;;;;;7.40;76.03;102570.97;5097197;27;62522;-86
2022/11/26 00:08:34;;;;;;;;;32.75;28.75;;;;;7.39;75.87;102577.00;5080575;27;45416;-86
2022/11/26 00:11:00;;;;;;;;;22.50;20.75;;;;;7.36;75.87;102583.00;5114766;27;45441;-84
2022/11/26 00:13:28;;;;;;;;;38.25;28.75;;;;;7.34;75.99;102584.72;5114838;27;45548;-84
2022/11/26 00:15:54;;;;;;;;;40.50;31.75;;;;;7.32;76.02;102582.97;5097917;27;45500;-84
2022/11/26 00:18:22;;;;;;;;;34.25;29.50;;;;;7.29;76.09;102583.78;5080695;27;45624;-83
2022/11/26 00:20:50;;;;;;;;;35.00;29.50;;;;;7.29;76.22;102591.53;5080786;27;45336;-84
2022/11/26 00:23:19;;;;;;;;;29.75;24.75;;;;;7.28;76.26;102588.94;5080165;27;46728;-86
2022/11/26 00:25:48;;;;;;;;;38.75;31.75;;;;;7.28;76.34;102595.00;5079013;27;45876;-84
2022/11/26 00:28:19;;;;;;;;;39.00;33.75;;;;;7.26;76.30;102594.13;5080447;27;45320;-84
2022/11/26 00:30:44;;;;;;;;;46.00;36.00;;;;;7.24;76.42;102590.59;5097179;27;45361;-84
2022/11/26 00:33:10;;;;;;;;;38.50;35.25;;;;;7.25;76.50;102597.53;5097888;27;45369;-83
2022/11/26 00:35:35;;;;;;;;;38.25;27.25;;;;;7.26;76.31;102594.13;5079256;27;61406;-84
2022/11/26 00:38:01;;;;;;;;;50.50;34.75;;;;;7.27;76.54;102594.97;5098136;27;48636;-84
2022/11/26 00:40:30;;;;;;;;;43.75;30.00;;;;;7.26;76.07;102593.22;5097999;27;45722;-83
2022/11/26 00:42:56;;;;;;;;;40.00;32.50;;;;;7.24;76.29;102594.91;5079871;27;46647;-85
2022/11/26 00:45:27;;;;;;;;;44.25;31.25;;;;;7.21;75.86;102590.56;5097390;27;62820;-84
2022/11/26 00:47:54;;;;;;;;;37.25;34.25;;;;;7.21;76.45;102597.47;5079559;27;45516;-84
2022/11/26 00:50:21;;;;;;;;;39.00;37.75;;;;;7.19;76.36;102592.28;5098198;27;45416;-85
2022/11/26 00:52:49;;;;;;;;;41.50;32.50;;;;;7.19;75.98;102594.88;5097643;27;46113;-84
2022/11/26 00:55:33;;;;;;;;;40.50;35.75;;;;;7.16;75.84;102595.66;5113837;27;46023;-84
2022/11/26 00:57:59;;;;;;;;;44.50;34.75;;;;;7.14;76.19;102593.91;5098000;27;45432;-84
2022/11/26 01:00:27;;;;;;;;;36.00;30.50;;;;;7.12;76.28;102593.03;5097885;27;45406;-85
2022/11/26 01:02:53;;;;;;;;;47.75;35.50;;;;;7.11;75.92;102589.56;5113316;27;46678;-85
2022/11/26 01:05:20;;;;;;;;;44.75;36.00;;;;;7.09;76.17;102599.00;5097753;27;45761;-84
2022/11/26 01:07:46;;;;;;;;;33.75;23.50;;;;;7.06;76.46;102593.81;5079707;27;45395;-84
2022/11/26 01:10:20;;;;;;;;;50.50;37.75;;;;;7.02;76.17;102601.50;5096988;27;63149;-84
2022/11/26 01:12:46;;;;;;;;;32.50;27.00;;;;;7.00;76.35;102598.88;5079434;27;45360;-85
2022/11/26 01:15:13;;;;;;;;;37.25;29.25;;;;;6.98;76.37;102597.97;5102870;27;45848;-85
2022/11/26 01:17:39;;;;;;;;;47.00;34.50;;;;;6.98;76.25;102595.38;5099050;27;45398;-84
2022/11/26 01:20:14;;;;;;;;;37.00;30.75;;;;;6.96;76.26;102597.09;5099933;27;45431;-85
2022/11/26 01:22:39;;;;;;;;;33.75;30.50;;;;;6.94;76.53;102601.38;5118041;27;45364;-84
2022/11/26 01:25:05;;;;;;;;;25.00;16.25;;;;;6.93;76.39;102597.06;5099258;27;53683;-84
2022/11/26 01:27:30;;;;;;;;;32.75;27.50;;;;;6.92;76.58;102598.75;5099658;27;45371;-84
2022/11/26 01:29:55;;;;;;;;;40.25;32.25;;;;;6.92;76.79;102598.75;5081707;27;66578;-84
2022/11/26 01:32:20;;;;;;;;;34.25;30.00;;;;;6.93;76.77;102594.47;5081436;27;67976;-84
2022/11/26 01:34:46;;;;;;;;;41.00;29.00;;;;;6.93;76.52;102600.50;5116512;27;48245;-84
2022/11/26 01:37:12;;;;;;;;;31.50;26.00;;;;;6.93;76.78;102602.22;5082496;27;45393;-85
2022/11/26 01:39:38;;;;;;;;;33.75;28.50;;;;;6.92;76.73;102590.13;5099488;27;45585;-85
2022/11/26 01:42:34;;;;;;;;;29.25;25.25;;;;;6.92;77.00;102588.41;5097918;27;55102;-84
2022/11/26 01:44:59;;;;;;;;;33.25;25.75;;;;;6.91;76.86;102590.97;5061697;27;45919;-84
2022/11/26 01:47:27;;;;;;;;;33.00;26.25;;;;;6.90;76.61;102595.28;5096231;27;58749;-84
2022/11/26 01:50:29;;;;;;;;;36.75;25.50;;;;;6.90;77.00;102591.81;5097157;27;45436;-84
2022/11/26 01:53:18;;;;;;;;;42.00;26.25;;;;;6.88;76.72;102594.38;5096899;27;45475;-84
2022/11/26 01:55:47;;;;;;;;;31.25;27.50;;;;;6.88;76.80;102601.28;5078738;27;45966;-85
2022/11/26 01:58:19;;;;;;;;;39.75;29.00;;;;;6.90;77.04;102608.22;5078835;27;45374;-84
2022/11/26 02:00:46;;;;;;;;;39.50;26.00;;;;;6.90;76.82;102609.94;5078424;27;45585;-84
2022/11/26 02:03:11;;;;;;;;;30.00;27.25;;;;;6.89;76.83;102601.31;5078473;27;47563;-84
2022/11/26 02:05:44;;;;;;;;;28.25;21.75;;;;;6.89;76.98;102593.53;5078474;27;45367;-84
2022/11/26 02:08:11;;;;;;;;;39.75;27.00;;;;;6.89;76.84;102601.31;5112954;27;45470;-84
2022/11/26 02:10:36;;;;;;;;;37.50;27.00;;;;;6.89;76.94;102596.13;5096759;27;45455;-83
2022/11/26 02:13:02;;;;;;;;;27.50;23.50;;;;;6.91;76.67;102596.13;5096704;27;45563;-84
2022/11/26 02:15:33;;;;;;;;;26.00;24.00;;;;;6.91;76.95;102598.72;5077842;27;45499;-84
2022/11/26 02:18:07;;;;;;;;;29.50;23.25;;;;;6.89;76.70;102593.53;5078785;27;45402;-84
2022/11/26 02:20:49;;;;;;;;;29.25;23.00;;;;;6.90;76.78;102595.28;5078481;27;45426;-84
2022/11/26 02:23:24;;;;;;;;;27.00;22.25;;;;;6.89;76.79;102590.97;5096546;27;46748;-84
2022/11/26 02:25:56;;;;;;;;;34.00;25.50;;;;;6.86;76.83;102583.13;5096345;27;45360;-84
2022/11/26 02:28:36;;;;;;;;;35.25;20.50;;;;;6.85;76.71;102581.38;5095429;27;45371;-84
2022/11/26 02:31:05;;;;;;;;;29.00;19.75;;;;;6.86;76.94;102571.91;5095992;27;45299;-84
2022/11/26 02:33:52;;;;;;;;;20.25;17.25;;;;;6.89;77.21;102578.00;5096497;27;45457;-84
2022/11/26 02:36:23;;;;;;;;;19.75;17.75;;;;;6.95;77.16;102582.41;5077979;27;45375;-84
2022/11/26 02:38:49;;;;;;;;;13.50;11.50;;;;;7.00;76.76;102588.50;5078392;27;45380;-84
2022/11/26 02:41:14;;;;;;;;;26.00;18.00;;;;;7.03;76.91;102591.16;5095291;27;66303;-84
2022/11/26 02:43:39;;;;;;;;;19.75;18.00;;;;;7.04;77.09;102594.63;5077675;27;45997;-84
2022/11/26 02:46:11;;;;;;;;;23.00;17.00;;;;;7.03;77.23;102593.75;5078092;27;45459;-84
2022/11/26 02:48:41;;;;;;;;;16.00;13.50;;;;;7.04;77.02;102594.63;5078175;27;45395;-84
2022/11/26 02:51:13;;;;;;;;;19.50;15.75;;;;;7.04;76.98;102594.63;5078062;27;45523;-84
2022/11/26 02:53:39;;;;;;;;;15.75;13.50;;;;;7.08;76.78;102594.69;5077820;27;46569;-87
2022/11/26 02:56:09;;;;;;;;;20.75;16.00;;;;;7.07;76.57;102597.25;5078054;27;45399;-85
2022/11/26 02:58:35;;;;;;;;;15.00;15.00;;;;;7.07;76.35;102599.84;5077823;27;45442;-85
2022/11/26 03:01:05;;;;;;;;;19.25;16.00;;;;;7.03;76.71;102604.09;5077690;27;48541;-84
2022/11/26 03:03:36;;;;;;;;;24.25;18.50;;;;;7.02;76.76;102593.72;5094882;27;47299;-85
2022/11/26 03:06:06;;;;;;;;;22.75;17.00;;;;;7.00;76.63;102598.00;5094791;27;45845;-84
2022/11/26 03:08:32;;;;;;;;;21.75;16.00;;;;;6.97;76.84;102594.53;5077893;27;45381;-84
2022/11/26 03:10:58;;;;;;;;;28.00;18.75;;;;;6.94;76.81;102589.28;5112119;27;45386;-84
2022/11/26 03:13:23;;;;;;;;;22.50;16.50;;;;;6.91;76.64;102591.84;5111451;27;46630;-85
2022/11/26 03:15:49;;;;;;;;;15.25;10.50;;;;;6.90;76.58;102592.69;5059552;27;71883;-84
2022/11/26 03:18:14;;;;;;;;;14.25;12.00;;;;;6.90;76.66;102584.91;5076885;27;55297;-84
2022/11/26 03:20:39;;;;;;;;;17.25;14.75;;;;;6.91;76.85;102594.44;5095219;27;62953;-84
2022/11/26 03:23:05;;;;;;;;;14.25;12.00;;;;;6.90;77.07;102599.59;5059440;27;76808;-84
2022/11/26 03:25:30;;;;;;;;;19.50;15.75;;;;;6.86;76.82;102608.16;5077629;27;45305;-84
2022/11/26 03:27:56;;;;;;;;;14.75;12.50;;;;;6.85;76.47;102603.81;5060383;27;45687;-84
2022/11/26 03:30:21;;;;;;;;;23.00;16.50;;;;;6.84;76.96;102607.25;5095875;27;45583;-84
2022/11/26 03:32:46;;;;;;;;;19.25;16.00;;;;;6.82;76.81;102608.97;5077406;27;45446;-84
2022/11/26 03:35:13;;;;;;;;;20.25;17.00;;;;;6.83;76.79;102613.28;5095649;27;45362;-84
2022/11/26 03:37:39;;;;;;;;;6.50;1.00;;;;;6.82;76.79;102606.38;5077604;27;45423;-84
2022/11/26 03:40:05;;;;;;;;;24.25;18.75;;;;;6.79;76.71;102602.84;5079836;27;45503;-85
2022/11/26 03:42:31;;;;;;;;;26.00;21.00;;;;;6.77;76.92;102595.91;5100544;27;45489;-84
2022/11/26 03:44:56;;;;;;;;;25.50;16.75;;;;;6.75;77.03;102602.78;5080178;27;62680;-84
2022/11/26 03:47:21;;;;;;;;;28.75;23.50;;;;;6.75;76.65;102597.63;5099245;27;45337;-84
2022/11/26 03:49:47;;;;;;;;;26.75;18.75;;;;;6.74;76.92;102604.53;5099114;27;45456;-84
2022/11/26 03:52:12;;;;;;;;;23.75;15.50;;;;;6.73;76.98;102602.75;5098866;27;57871;-84
2022/11/26 03:54:38;;;;;;;;;28.25;23.50;;;;;6.73;77.00;102613.13;5080301;27;45815;-84
2022/11/26 03:57:03;;;;;;;;;31.50;20.50;;;;;6.72;76.96;102610.50;5098057;27;60772;-84
2022/11/26 03:59:28;;;;;;;;;22.50;20.25;;;;;6.73;77.36;102600.19;5097048;27;57645;-84
2022/11/26 04:01:54;;;;;;;;;18.75;15.25;;;;;6.77;77.30;102603.69;5098782;27;46278;-84
2022/11/26 04:04:19;;;;;;;;;20.75;18.25;;;;;6.77;76.99;102601.09;5080052;27;56947;-83
2022/11/26 04:06:44;;;;;;;;;28.00;18.50;;;;;6.75;77.14;102603.66;5098639;27;50873;-84
2022/11/26 04:09:10;;;;;;;;;23.25;18.25;;;;;6.76;77.21;102609.69;5079785;27;64166;-84
2022/11/26 04:11:35;;;;;;;;;29.00;22.50;;;;;6.77;77.10;102614.03;5097406;27;67710;-84
2022/11/26 04:14:00;;;;;;;;;31.25;22.00;;;;;6.79;77.11;102609.75;5080475;27;45346;-84
2022/11/26 04:16:26;;;;;;;;;31.50;21.25;;;;;6.79;77.50;102612.34;5084308;27;47654;-84
2022/11/26 04:18:51;;;;;;;;;22.25;20.00;;;;;6.81;77.49;102617.56;5098025;27;66274;-84
2022/11/26 04:21:17;;;;;;;;;22.50;21.75;;;;;6.80;77.39;102611.50;5098323;27;47647;-83
2022/11/26 04:23:42;;;;;;;;;24.75;22.50;;;;;6.79;77.47;102608.03;5080433;27;45359;-83
2022/11/26 04:26:07;;;;;;;;;29.00;20.50;;;;;6.78;77.17;102603.72;5079940;27;45571;-84
2022/11/26 04:28:33;;;;;;;;;27.50;21.25;;;;;6.78;76.86;102597.69;5079661;27;53671;-84
2022/11/26 04:30:58;;;;;;;;;29.25;22.75;;;;;6.79;77.35;102596.81;5097650;27;62700;-84
2022/11/26 04:33:25;;;;;;;;;27.00;19.75;;;;;6.81;77.44;102597.72;5098093;27;50492;-85
2022/11/26 04:35:52;;;;;;;;;23.25;20.00;;;;;6.81;77.05;102597.72;5098341;27;45447;-84
2022/11/26 04:38:17;;;;;;;;;28.75;23.25;;;;;6.82;77.40;102604.63;5080167;27;45462;-84
2022/11/26 04:40:43;;;;;;;;;21.00;17.75;;;;;6.83;77.49;102603.78;5079326;27;46314;-84
2022/11/26 04:43:08;;;;;;;;;22.50;19.75;;;;;6.83;76.91;102613.28;5113437;27;58709;-83
2022/11/26 04:45:33;;;;;;;;;29.00;21.25;;;;;6.83;77.42;102614.13;5079307;27;61429;-82
2022/11/26 04:47:59;;;;;;;;;29.00;21.50;;;;;6.84;77.14;102615.88;5079094;27;63896;-83
2022/11/26 04:50:24;;;;;;;;;30.75;20.25;;;;;6.85;77.16;102609.84;5077622;27;75118;-85
2022/11/26 04:52:49;;;;;;;;;22.75;20.50;;;;;6.83;77.11;102608.09;5078980;27;59786;-84
2022/11/26 04:55:16;;;;;;;;;26.00;20.75;;;;;6.82;77.09;102602.06;5079436;27;45353;-84
2022/11/26 04:57:41;;;;;;;;;24.50;21.75;;;;;6.82;76.75;102606.38;5096798;27;45499;-84
2022/11/26 05:00:08;;;;;;;;;32.00;21.75;;;;;6.81;77.15;102608.06;5079308;27;47469;-84
2022/11/26 05:02:33;;;;;;;;;23.75;22.75;;;;;6.79;76.96;102610.63;5079530;27;45934;-84
2022/11/26 05:04:58;;;;;;;;;23.00;20.50;;;;;6.80;77.13;102616.69;5079684;27;45434;-84
2022/11/26 05:07:24;;;;;;;;;26.50;21.25;;;;;6.78;77.08;102615.78;5079693;27;45391;-84
2022/11/26 05:09:49;;;;;;;;;33.00;22.50;;;;;6.76;77.01;102610.59;5078135;27;73618;-84
2022/11/26 05:12:14;;;;;;;;;22.50;21.75;;;;;6.74;77.29;102608.81;5078688;27;62962;-84
2022/11/26 05:14:39;;;;;;;;;22.25;21.00;;;;;6.73;77.40;102623.47;5096780;27;64632;-84
2022/11/26 05:17:05;;;;;;;;;28.75;18.50;;;;;6.72;77.33;102629.50;5078857;27;59851;-84
2022/11/26 05:19:30;;;;;;;;;23.50;18.75;;;;;6.72;77.17;102628.63;5113445;27;48124;-84
2022/11/26 05:21:56;;;;;;;;;31.25;23.00;;;;;6.71;77.16;102637.25;5062382;27;45412;-84
2022/11/26 05:24:21;;;;;;;;;35.25;22.75;;;;;6.69;77.39;102637.22;5096566;27;56606;-84
2022/11/26 05:26:46;;;;;;;;;29.50;22.50;;;;;6.69;77.37;102634.63;5061794;27;59561;-83
2022/11/26 05:29:12;;;;;;;;;32.50;25.75;;;;;6.69;77.38;102637.22;5078529;27;65076;-84
2022/11/26 05:31:37;;;;;;;;;32.25;27.25;;;;;6.71;77.42;102630.34;5061282;27;67367;-84
2022/11/26 05:34:02;;;;;;;;;25.00;21.75;;;;;6.74;77.49;102632.09;5079245;27;45378;-84
2022/11/26 05:36:28;;;;;;;;;30.25;22.25;;;;;6.76;77.41;102639.06;5079131;27;45410;-84
2022/11/26 05:38:53;;;;;;;;;24.50;20.75;;;;;6.79;77.42;102640.81;5096918;27;48206;-84
2022/11/26 05:41:18;;;;;;;;;26.50;25.25;;;;;6.84;77.50;102636.59;5096320;27;72565;-84
2022/11/26 05:43:44;;;;;;;;;17.25;11.50;;;;;6.90;77.47;102646.19;5078503;27;56583;-84
2022/11/26 05:46:10;;;;;;;;;25.00;22.25;;;;;6.91;77.84;102646.22;5097217;27;46149;-84
2022/11/26 05:48:35;;;;;;;;;28.00;23.75;;;;;6.92;77.87;102660.88;5077954;27;65663;-84
2022/11/26 05:51:02;;;;;;;;;27.00;24.50;;;;;6.92;77.61;102662.63;5096983;27;45279;-84
2022/11/26 05:53:29;;;;;;;;;29.75;22.00;;;;;6.94;77.71;102660.91;5096388;27;45332;-84
2022/11/26 05:55:54;;;;;;;;;24.50;19.00;;;;;6.95;77.83;102654.91;5097196;27;45418;-84
2022/11/26 05:58:19;;;;;;;;;29.25;22.75;;;;;6.97;77.57;102664.44;5078314;27;54707;-84
2022/11/26 06:00:46;;;;;;;;;34.00;27.00;;;;;7.01;77.83;102667.94;5096186;27;67341;-84
2022/11/26 06:03:11;;;;;;;;;28.75;23.75;;;;;7.03;77.65;102667.97;5095877;27;63266;-84
2022/11/26 06:05:36;;;;;;;;;32.00;24.50;;;;;7.03;77.49;102668.84;5097014;27;45418;-84
2022/11/26 06:08:02;;;;;;;;;34.75;29.00;;;;;7.02;77.85;102677.47;5095997;27;59192;-84
2022/11/26 06:10:27;;;;;;;;;32.25;25.75;;;;;7.03;77.83;102675.75;5078574;27;49033;-83
2022/11/26 06:12:52;;;;;;;;;36.25;25.00;;;;;7.03;77.53;102680.94;5077883;27;62740;-84
2022/11/26 06:15:18;;;;;;;;;40.25;31.00;;;;;7.03;77.47;102680.94;5092047;27;48253;-83
2022/11/26 06:17:43;;;;;;;;;36.50;26.00;;;;;7.03;77.91;102693.88;5095807;27;70363;-84
2022/11/26 06:20:09;;;;;;;;;36.50;29.75;;;;;7.05;77.95;102692.19;5077798;27;59643;-84
2022/11/26 06:22:38;;;;;;;;;33.00;27.50;;;;;7.04;77.75;102696.50;5096274;27;45297;-84
2022/11/26 06:25:08;;;;;;;;;31.25;25.50;;;;;7.06;77.81;102681.00;5112589;27;45390;-84
2022/11/26 06:27:34;;;;;;;;;30.50;26.25;;;;;7.09;77.58;102673.25;5095319;27;48408;-85
2022/11/26 06:30:00;;;;;;;;;32.25;25.50;;;;;7.11;77.74;102672.44;5096443;27;45264;-85
2022/11/26 06:32:28;;;;;;;;;32.25;27.75;;;;;7.13;77.88;102670.75;5078489;27;45341;-84
2022/11/26 06:34:53;;;;;;;;;40.75;31.25;;;;;7.16;77.98;102678.56;5096635;27;45411;-84
2022/11/26 06:37:18;;;;;;;;;35.00;27.50;;;;;7.20;77.49;102678.63;5077130;27;59454;-84
2022/11/26 06:39:43;;;;;;;;;34.00;28.25;;;;;7.21;77.44;102686.41;5077270;27;67027;-84
2022/11/26 06:42:09;;;;;;;;;44.75;29.25;;;;;7.24;77.74;102685.56;5095866;27;55259;-84
2022/11/26 06:44:35;;;;;;;;;33.75;29.25;;;;;7.27;77.59;102702.03;5078244;27;45345;-84
2022/11/26 06:47:00;;;;;;;;;40.75;33.25;;;;;7.30;77.78;102712.47;5096297;27;45500;-84
2022/11/26 06:49:26;;;;;;;;;34.00;27.25;;;;;7.31;77.94;102714.19;5078013;27;46049;-84
2022/11/26 06:51:52;;;;;;;;;25.50;22.00;;;;;7.32;78.15;102723.72;5077005;27;62928;-84
2022/11/26 06:54:17;;;;;;;;;37.25;30.25;;;;;7.32;77.52;102715.94;5077789;27;45320;-84
2022/11/26 06:56:43;;;;;;;;;31.25;26.00;;;;;7.32;78.01;102708.19;5095402;27;71279;-84
2022/11/26 06:59:08;;;;;;;;;33.75;28.75;;;;;7.33;77.94;102703.84;5077163;27;68012;-84
2022/11/26 07:01:33;;;;;;;;;33.25;26.25;;;;;7.34;78.03;102703.03;5077978;27;45424;-85
2022/11/26 07:03:59;;;;;;;;;44.75;30.00;;;;;7.35;77.76;102697.88;5077878;27;45498;-84
2022/11/26 07:06:27;;;;;;;;;39.75;34.25;;;;;7.36;77.37;102696.16;5077383;27;45513;-84
2022/11/26 07:08:54;;;;;;;;;39.75;29.50;;;;;7.38;77.90;102703.94;5077928;27;46090;-85
2022/11/26 07:11:19;;;;;;;;;40.00;30.75;;;;;7.41;77.64;102704.88;5077832;27;45458;-84
2022/11/26 07:13:45;;;;;;;;;45.75;34.25;;;;;7.42;77.70;102700.56;5111245;27;67847;-84
2022/11/26 07:16:13;;;;;;;;;34.25;28.50;;;;;7.39;77.43;102714.31;5099060;27;47057;-85
2022/11/26 07:18:38;;;;;;;;;31.00;29.00;;;;;7.36;77.55;102720.31;5081205;27;45890;-84
2022/11/26 07:21:09;;;;;;;;;44.75;32.50;;;;;7.39;77.79;102727.25;5080888;27;45335;-83
2022/11/26 07:23:34;;;;;;;;;34.50;29.50;;;;;7.41;77.93;102729.88;5064431;27;45534;-84
2022/11/26 07:26:01;;;;;;;;;39.25;29.50;;;;;7.41;77.79;102724.69;5097689;27;46147;-84
2022/11/26 07:28:27;;;;;;;;;41.75;31.75;;;;;7.41;77.79;102725.59;5081095;27;45759;-85
2022/11/26 07:30:52;;;;;;;;;38.00;30.50;;;;;7.41;77.52;102722.13;5081143;27;45353;-85
2022/11/26 07:33:18;;;;;;;;;30.75;28.25;;;;;7.44;77.27;102717.84;5098591;27;63685;-85
2022/11/26 07:35:43;;;;;;;;;39.00;32.25;;;;;7.47;77.75;102717.06;5098199;27;64071;-85
2022/11/26 07:38:08;;;;;;;;;37.50;27.50;;;;;7.51;77.81;102714.50;5098398;27;59395;-85
2022/11/26 07:40:34;;;;;;;;;31.00;26.00;;;;;7.56;77.72;102706.81;5076816;28;65862;-85
2022/11/26 07:42:59;;;;;;;;;36.75;25.25;;;;;7.60;77.80;102698.25;5060159;28;63068;-85
2022/11/26 07:45:24;;;;;;;;;28.00;20.25;;;;;7.65;78.12;102700.88;5060444;28;46072;-85
2022/11/26 07:47:50;;;;;;;;;26.50;20.00;;;;;7.68;78.08;102698.34;5060666;28;45429;-85
2022/11/26 07:50:15;;;;;;;;;25.25;23.25;;;;;7.70;77.66;102694.06;5078377;28;45390;-85
2022/11/26 07:52:40;;;;;;;;;22.50;21.00;;;;;7.76;77.95;102694.13;5077400;28;45285;-84
2022/11/26 07:55:06;;;;;;;;;22.50;19.50;;;;;7.80;77.98;102692.47;5042498;28;70914;-85
2022/11/26 07:57:31;;;;;;;;;23.25;19.75;;;;;7.83;78.26;102688.19;5060661;28;45393;-84
2022/11/26 07:59:57;;;;;;;;;19.50;13.50;;;;;7.89;77.93;102693.47;5060100;28;51682;-84
2022/11/26 08:02:22;;;;;;;;;13.50;13.00;;;;;7.95;78.08;102690.97;5077946;28;62986;-84
2022/11/26 08:04:47;;;;;;;;;23.50;17.25;;;;;8.03;78.52;102696.25;5059394;28;54395;-84
2022/11/26 08:07:13;;;;;;;;;31.25;16.50;;;;;8.10;78.55;102698.06;5059400;28;65570;-84
2022/11/26 08:09:38;;;;;;;;;20.25;15.25;;;;;8.19;78.28;102707.69;5043288;28;45359;-84
2022/11/26 08:12:04;;;;;;;;;16.00;14.00;;;;;8.27;78.29;102718.16;5078161;28;45395;-84
2022/11/26 08:14:29;;;;;;;;;16.00;11.50;;;;;8.32;77.84;102722.56;5059659;28;46560;-85
2022/11/26 08:16:55;;;;;;;;;13.25;12.00;;;;;8.36;77.65;102723.47;5097961;27;45313;-85
2022/11/26 08:19:21;;;;;;;;;22.25;16.00;;;;;8.40;77.83;102727.84;5080865;27;45326;-85
2022/11/26 08:21:46;;;;;;;;;19.00;18.25;;;;;8.46;77.47;102730.53;5080187;27;56172;-85
2022/11/26 08:24:14;;;;;;;;;28.75;20.25;;;;;8.55;77.56;102734.09;5097535;27;71906;-84
2022/11/26 08:26:40;;;;;;;;;26.25;23.75;;;;;8.61;77.16;102729.81;5080071;27;45263;-85
2022/11/26 08:29:06;;;;;;;;;37.25;34.00;;;;;8.66;77.13;102740.28;5080597;27;45411;-86
2022/11/26 08:31:31;;;;;;;;;39.50;31.25;;;;;8.71;77.12;102734.28;5080188;27;45660;-85
2022/11/26 08:33:58;;;;;;;;;42.50;34.50;;;;;8.77;76.98;102722.22;5079497;27;60332;-83
2022/11/26 08:36:24;;;;;;;;;34.50;28.50;;;;;8.82;77.21;102723.13;5063087;27;46001;-80
2022/11/26 08:38:50;;;;;;;;;32.75;28.25;;;;;8.87;77.22;102719.72;5079674;27;45410;-83
2022/11/26 08:41:15;;;;;;;;;28.00;24.25;;;;;8.94;77.46;102712.00;5097183;27;45948;-84
2022/11/26 08:43:40;;;;;;;;;21.75;19.50;;;;;8.97;76.93;102699.91;5077396;27;69420;-82
2022/11/26 08:46:06;;;;;;;;;25.50;19.25;;;;;9.04;77.24;102698.22;5091887;27;45407;-83
2022/11/26 08:48:32;;;;;;;;;21.25;10.25;;;;;9.10;77.44;102709.56;5079552;27;45383;-86
2022/11/26 08:51:03;;;;;;;;;10.50;8.25;;;;;9.15;76.91;102713.91;5062176;27;45376;-81
2022/11/26 08:53:29;;;;;;;;;8.00;8.00;;;;;9.19;77.16;102724.31;5097610;27;46325;-82
2022/11/26 08:56:01;;;;;;;;;13.25;9.25;;;;;9.27;77.37;102724.41;5079570;27;45781;-81
2022/11/26 08:58:27;;;;;;;;;11.75;9.00;;;;;9.35;76.91;102727.06;5097977;27;45271;-81
2022/11/26 09:00:52;;;;;;;;;9.75;6.00;;;;;9.41;76.99;102722.78;5079190;27;45305;-85
2022/11/26 09:03:18;;;;;;;;;8.75;6.25;;;;;9.46;76.61;102731.50;5079141;27;46600;-84
2022/11/26 09:05:43;;;;;;;;;10.00;7.25;;;;;9.55;76.92;102725.50;5096505;27;63477;-85
2022/11/26 09:08:08;;;;;;;;;11.50;9.50;;;;;9.67;76.49;102727.31;5096122;27;68420;-85
2022/11/26 09:10:34;;;;;;;;;10.75;6.25;;;;;9.77;76.02;102729.13;5079184;27;45522;-85
2022/11/26 09:12:59;;;;;;;;;9.00;7.50;;;;;9.85;76.12;102713.56;5097633;27;46249;-81
2022/11/26 09:15:24;;;;;;;;;9.75;8.00;;;;;9.94;76.01;102726.59;5094988;27;63294;-81
2022/11/26 09:17:50;;;;;;;;;12.25;9.50;;;;;9.99;75.85;102731.81;5096361;27;61989;-81
2022/11/26 09:20:15;;;;;;;;;16.00;10.00;;;;;10.02;75.50;102729.25;5097392;27;45668;-83
2022/11/26 09:22:40;;;;;;;;;10.50;9.00;;;;;10.05;75.34;102726.66;5096650;27;68769;-81
2022/11/26 09:25:06;;;;;;;;;12.75;9.75;;;;;10.04;75.19;102725.78;5097129;27;45396;-82
2022/11/26 09:27:31;;;;;;;;;11.25;9.25;;;;;10.03;75.50;102723.19;5097577;27;45386;-83
2022/11/26 09:29:57;;;;;;;;;8.75;7.50;;;;;10.03;75.50;102725.81;5096585;27;60735;-82
2022/11/26 09:32:22;;;;;;;;;13.00;10.25;;;;;10.04;75.50;102728.38;5097400;27;45355;-82
2022/11/26 09:34:47;;;;;;;;;20.50;12.00;;;;;10.04;75.35;102730.13;5078304;27;65027;-83
2022/11/26 09:37:13;;;;;;;;;15.00;8.00;;;;;10.04;75.40;102727.53;5095204;27;61842;-83
2022/11/26 09:39:38;;;;;;;;;14.00;10.25;;;;;10.06;75.28;102723.19;5096822;27;45451;-83
2022/11/26 09:42:05;;;;;;;;;14.00;11.00;;;;;10.11;75.50;102715.41;5095995;27;70401;-83
2022/11/26 09:44:46;;;;;;;;;10.50;8.50;;;;;10.14;75.41;102711.09;5078105;27;45711;-83
2022/11/26 09:47:16;;;;;;;;;18.75;9.25;;;;;10.19;75.41;102713.72;5097491;27;45499;-83
2022/11/26 09:49:50;;;;;;;;;11.75;9.75;;;;;10.22;75.03;102717.19;5079233;27;45418;-83
2022/11/26 09:52:17;;;;;;;;;13.50;10.00;;;;;10.22;75.02;102708.53;5096924;27;46638;-83
2022/11/26 09:54:44;;;;;;;;;12.25;10.75;;;;;10.21;74.97;102704.16;5078244;27;45715;-83
2022/11/26 09:57:28;;;;;;;;;17.00;10.75;;;;;10.23;75.34;102708.53;5080476;27;57380;-82
2022/11/26 09:59:54;;;;;;;;;21.75;15.25;;;;;10.24;75.09;102712.88;5078389;27;45380;-84
2022/11/26 10:02:20;;;;;;;;;18.50;15.25;;;;;10.28;75.09;102708.53;5078348;27;45466;-82
2022/11/26 10:04:45;;;;;;;;;14.00;13.75;;;;;10.32;75.00;102701.66;5095951;27;63423;-83
2022/11/26 10:07:23;;;;;;;;;13.75;10.00;;;;;10.37;74.94;102705.16;5095633;27;45398;-84
2022/11/26 10:10:01;;;;;;;;;14.00;11.00;;;;;10.39;74.47;102706.00;5096773;27;45268;-83
2022/11/26 10:12:59;;;;;;;;;15.75;10.00;;;;;10.42;74.90;102703.44;5063278;27;48046;-83
2022/11/26 10:15:25;;;;;;;;;9.75;9.00;;;;;10.46;74.64;102703.44;5105813;27;46000;-89
2022/11/26 10:18:24;;;;;;;;;9.00;7.00;;;;;10.57;74.82;102705.22;5081089;27;45793;-91
2022/11/26 10:21:30;;;;;;;;;15.00;9.50;;;;;10.69;74.34;102699.16;5101709;27;45284;-94
2022/11/26 10:24:08;;;;;;;;;12.75;10.50;;;;;10.77;74.53;102710.44;5104916;22;47073;-95
2022/11/26 10:32:38;;;;;;;;;20.75;12.00;;;;;11.16;73.70;102680.06;5118732;22;66444;-82
2022/11/26 10:35:04;;;;;;;;;14.50;11.00;;;;;11.40;73.29;102693.09;5078206;27;45411;-81
2022/11/26 10:37:30;;;;;;;;;17.00;13.25;;;;;11.53;73.24;102680.88;5077841;27;45454;-82
2022/11/26 10:40:26;;;;;;;;;19.50;13.00;;;;;11.70;73.03;102674.78;5067946;28;45445;-82
2022/11/26 10:43:07;;;;;;;;;11.00;10.00;;;;;11.90;72.16;102680.81;5040882;28;45316;-82
2022/11/26 10:45:50;;;;;;;;;18.50;13.50;;;;;11.99;71.40;102687.75;5085585;27;46389;-82
2022/11/26 10:48:34;;;;;;;;;19.00;16.00;;;;;12.13;71.53;102672.06;5060757;28;45848;-82
2022/11/26 10:51:04;;;;;;;;;33.75;20.25;;;;;12.45;71.29;102684.09;5078644;28;68690;-82
2022/11/26 10:53:34;;;;;;;;;22.25;16.75;;;;;12.63;70.92;102683.97;5061932;27;45355;-82
2022/11/26 10:56:03;;;;;;;;;19.25;13.00;;;;;12.83;70.10;102675.97;5061663;28;45395;-81
2022/11/26 10:58:40;;;;;;;;;28.25;24.00;;;;;13.20;69.59;102674.81;5079069;28;45439;-82
2022/11/26 11:01:06;;;;;;;;;17.75;13.00;;;;;13.85;67.45;102694.22;5088194;27;45285;-82
2022/11/26 11:03:35;;;;;;;;;16.00;13.50;;;;;14.43;67.10;102684.78;5081872;27;45347;-83
2022/11/26 11:06:11;;;;;;;;;19.50;13.75;;;;;15.04;66.04;102696.13;5081541;27;46217;-86
2022/11/26 11:08:36;;;;;;;;;21.75;14.50;;;;;15.38;63.93;102687.69;5081344;27;45415;-82
2022/11/26 11:11:03;;;;;;;;;22.50;18.00;;;;;15.66;62.98;102689.78;5079224;27;45400;-80
2022/11/26 11:13:48;;;;;;;;;26.75;18.75;;;;;16.33;63.01;102690.19;5079222;28;45563;-82
2022/11/26 11:16:24;;;;;;;;;18.25;15.25;;;;;17.02;61.59;102672.81;5092784;27;46244;-79
2022/11/26 11:18:55;;;;;;;;;18.25;9.50;;;;;17.67;59.75;102681.63;5099577;27;45545;-82
2022/11/26 11:21:23;;;;;;;;;16.75;14.75;;;;;18.40;57.57;102677.75;5081113;27;45597;-84
2022/11/26 11:23:49;;;;;;;;;19.00;14.25;;;;;19.01;56.81;102672.31;5081083;27;45407;-82
2022/11/26 11:26:23;;;;;;;;;20.25;17.00;;;;;19.76;54.59;102673.25;5079534;27;45387;-81